sensor_id;sensor_type;location;lat;lon;timestamp;P1;durP1;ratioP1;P2;durP2;ratioP2
65871;SDS011;52653;50.080;21.992;2023-02-15T00:01:26;40.00;;;24.30;;
65871;SDS011;52653;50.080;21.992;2023-02-15T00:04:19;37.40;;;23.90;;
65871;SDS011;52653;50.080;21.992;2023-02-15T00:07:07;36.60;;;22.80;;
65871;SDS011;52653;50.080;21.992;2023-02-15T00:10:00;38.20;;;22.70;;
65871;SDS011;52653;50.080;21.992;2023-02-15T00:12:53;39.20;;;23.30;;
65871;SDS011;52653;50.080;21.992;2023-02-15T00:15:46;38.00;;;24.10;;
65871;SDS011;52653;50.080;21.992;2023-02-15T00:18:39;36.90;;;22.20;;
65871;SDS011;52653;50.080;21.992;2023-02-15T00:21:33;39.40;;;22.70;;
65871;SDS011;52653;50.080;21.992;2023-02-15T00:24:27;34.90;;;21.50;;
65871;SDS011;52653;50.080;21.992;2023-02-15T00:27:20;36.50;;;22.50;;
65871;SDS011;52653;50.080;21.992;2023-02-15T00:30:13;33.10;;;20.50;;
65871;SDS011;52653;50.080;21.992;2023-02-15T00:32:55;31.50;;;20.50;;
65871;SDS011;52653;50.080;21.992;2023-02-15T00:35:48;32.80;;;20.00;;
65871;SDS011;52653;50.080;21.992;2023-02-15T00:39:00;33.40;;;21.10;;
65871;SDS011;52653;50.080;21.992;2023-02-15T00:41:54;36.00;;;21.40;;
65871;SDS011;52653;50.080;21.992;2023-02-15T00:44:46;33.70;;;20.90;;
65871;SDS011;52653;50.080;21.992;2023-02-15T00:47:39;35.70;;;21.90;;
65871;SDS011;52653;50.080;21.992;2023-02-15T00:50:32;34.90;;;22.60;;
65871;SDS011;52653;50.080;21.992;2023-02-15T00:53:25;36.90;;;23.00;;
65871;SDS011;52653;50.080;21.992;2023-02-15T00:56:18;36.30;;;21.90;;
65871;SDS011;52653;50.080;21.992;2023-02-15T00:59:11;35.00;;;22.50;;
65871;SDS011;52653;50.080;21.992;2023-02-15T01:02:04;34.60;;;21.40;;
65871;SDS011;52653;50.080;21.992;2023-02-15T01:04:57;35.00;;;22.20;;
65871;SDS011;52653;50.080;21.992;2023-02-15T01:07:45;36.00;;;22.20;;
65871;SDS011;52653;50.080;21.992;2023-02-15T01:10:38;34.00;;;21.20;;
65871;SDS011;52653;50.080;21.992;2023-02-15T01:13:32;36.70;;;23.10;;
65871;SDS011;52653;50.080;21.992;2023-02-15T01:16:27;36.40;;;23.90;;
65871;SDS011;52653;50.080;21.992;2023-02-15T01:19:21;38.70;;;24.90;;
65871;SDS011;52653;50.080;21.992;2023-02-15T01:22:14;41.30;;;26.90;;
65871;SDS011;52653;50.080;21.992;2023-02-15T01:25:00;41.00;;;25.60;;
65871;SDS011;52653;50.080;21.992;2023-02-15T01:27:54;39.60;;;23.30;;
65871;SDS011;52653;50.080;21.992;2023-02-15T01:30:45;33.00;;;22.10;;
65871;SDS011;52653;50.080;21.992;2023-02-15T01:33:38;37.70;;;23.10;;
65871;SDS011;52653;50.080;21.992;2023-02-15T01:36:31;35.90;;;22.10;;
65871;SDS011;52653;50.080;21.992;2023-02-15T01:39:25;36.30;;;22.60;;
65871;SDS011;52653;50.080;21.992;2023-02-15T01:42:21;37.40;;;22.80;;
65871;SDS011;52653;50.080;21.992;2023-02-15T01:45:18;32.80;;;21.40;;
65871;SDS011;52653;50.080;21.992;2023-02-15T01:48:08;34.20;;;21.50;;
65871;SDS011;52653;50.080;21.992;2023-02-15T01:51:12;32.60;;;21.20;;
65871;SDS011;52653;50.080;21.992;2023-02-15T01:54:11;34.60;;;21.70;;
65871;SDS011;52653;50.080;21.992;2023-02-15T01:57:10;34.90;;;21.00;;
65871;SDS011;52653;50.080;21.992;2023-02-15T02:00:06;34.50;;;22.00;;
65871;SDS011;52653;50.080;21.992;2023-02-15T02:03:17;32.60;;;20.80;;
65871;SDS011;52653;50.080;21.992;2023-02-15T02:06:15;30.20;;;20.00;;
65871;SDS011;52653;50.080;21.992;2023-02-15T02:09:08;32.70;;;20.70;;
65871;SDS011;52653;50.080;21.992;2023-02-15T02:11:55;34.00;;;20.40;;
65871;SDS011;52653;50.080;21.992;2023-02-15T02:14:47;33.50;;;21.10;;
65871;SDS011;52653;50.080;21.992;2023-02-15T02:17:29;34.20;;;20.40;;
65871;SDS011;52653;50.080;21.992;2023-02-15T02:20:51;33.60;;;20.10;;
65871;SDS011;52653;50.080;21.992;2023-02-15T02:23:57;30.30;;;20.30;;
65871;SDS011;52653;50.080;21.992;2023-02-15T02:27:23;31.90;;;20.40;;
65871;SDS011;52653;50.080;21.992;2023-02-15T02:30:32;30.50;;;20.10;;
65871;SDS011;52653;50.080;21.992;2023-02-15T02:33:47;30.80;;;19.90;;
65871;SDS011;52653;50.080;21.992;2023-02-15T02:36:49;38.40;;;21.40;;
65871;SDS011;52653;50.080;21.992;2023-02-15T02:39:49;32.30;;;20.20;;
65871;SDS011;52653;50.080;21.992;2023-02-15T02:42:48;33.10;;;19.40;;
65871;SDS011;52653;50.080;21.992;2023-02-15T02:45:47;33.80;;;20.90;;
65871;SDS011;52653;50.080;21.992;2023-02-15T02:48:47;33.50;;;21.30;;
65871;SDS011;52653;50.080;21.992;2023-02-15T02:51:41;33.70;;;20.50;;
65871;SDS011;52653;50.080;21.992;2023-02-15T02:54:35;34.80;;;20.90;;
65871;SDS011;52653;50.080;21.992;2023-02-15T02:57:28;33.20;;;21.50;;
65871;SDS011;52653;50.080;21.992;2023-02-15T03:00:24;35.30;;;22.30;;
65871;SDS011;52653;50.080;21.992;2023-02-15T03:03:21;34.10;;;21.20;;
65871;SDS011;52653;50.080;21.992;2023-02-15T03:06:19;34.70;;;20.80;;
65871;SDS011;52653;50.080;21.992;2023-02-15T03:09:21;34.00;;;21.50;;
65871;SDS011;52653;50.080;21.992;2023-02-15T03:12:24;29.90;;;19.30;;
65871;SDS011;52653;50.080;21.992;2023-02-15T03:15:21;37.90;;;20.70;;
65871;SDS011;52653;50.080;21.992;2023-02-15T03:18:30;34.30;;;21.20;;
65871;SDS011;52653;50.080;21.992;2023-02-15T03:21:30;34.30;;;21.80;;
65871;SDS011;52653;50.080;21.992;2023-02-15T03:24:26;35.00;;;20.50;;
65871;SDS011;52653;50.080;21.992;2023-02-15T03:27:25;36.60;;;21.80;;
65871;SDS011;52653;50.080;21.992;2023-02-15T03:30:25;33.80;;;20.80;;
65871;SDS011;52653;50.080;21.992;2023-02-15T03:33:20;32.70;;;20.50;;
65871;SDS011;52653;50.080;21.992;2023-02-15T03:36:15;35.20;;;20.00;;
65871;SDS011;52653;50.080;21.992;2023-02-15T03:39:13;32.90;;;18.20;;
65871;SDS011;52653;50.080;21.992;2023-02-15T03:42:11;28.40;;;18.10;;
65871;SDS011;52653;50.080;21.992;2023-02-15T03:45:09;28.20;;;17.50;;
65871;SDS011;52653;50.080;21.992;2023-02-15T03:48:06;30.80;;;19.70;;
65871;SDS011;52653;50.080;21.992;2023-02-15T03:51:00;28.70;;;18.50;;
65871;SDS011;52653;50.080;21.992;2023-02-15T03:54:13;26.40;;;17.30;;
65871;SDS011;52653;50.080;21.992;2023-02-15T03:57:28;27.20;;;18.50;;
65871;SDS011;52653;50.080;21.992;2023-02-15T04:00:39;30.50;;;18.60;;
65871;SDS011;52653;50.080;21.992;2023-02-15T04:03:54;31.10;;;18.60;;
65871;SDS011;52653;50.080;21.992;2023-02-15T04:06:51;31.40;;;18.40;;
65871;SDS011;52653;50.080;21.992;2023-02-15T04:09:46;30.70;;;18.70;;
65871;SDS011;52653;50.080;21.992;2023-02-15T04:12:57;32.60;;;18.20;;
65871;SDS011;52653;50.080;21.992;2023-02-15T04:15:50;26.80;;;18.10;;
65871;SDS011;52653;50.080;21.992;2023-02-15T04:18:55;28.60;;;16.40;;
65871;SDS011;52653;50.080;21.992;2023-02-15T04:21:58;27.40;;;17.90;;
65871;SDS011;52653;50.080;21.992;2023-02-15T04:25:08;55.80;;;27.40;;
65871;SDS011;52653;50.080;21.992;2023-02-15T04:27:53;76.80;;;33.80;;
65871;SDS011;52653;50.080;21.992;2023-02-15T04:30:46;72.00;;;32.20;;
65871;SDS011;52653;50.080;21.992;2023-02-15T04:33:38;66.70;;;32.50;;
65871;SDS011;52653;50.080;21.992;2023-02-15T04:36:33;58.60;;;28.40;;
65871;SDS011;52653;50.080;21.992;2023-02-15T04:39:09;51.00;;;27.10;;
65871;SDS011;52653;50.080;21.992;2023-02-15T04:42:05;48.30;;;24.10;;
65871;SDS011;52653;50.080;21.992;2023-02-15T04:44:58;56.30;;;27.50;;
65871;SDS011;52653;50.080;21.992;2023-02-15T04:47:51;49.10;;;26.90;;
65871;SDS011;52653;50.080;21.992;2023-02-15T04:50:45;48.10;;;24.50;;
65871;SDS011;52653;50.080;21.992;2023-02-15T04:53:38;43.30;;;22.60;;
65871;SDS011;52653;50.080;21.992;2023-02-15T04:56:32;45.30;;;23.20;;
65871;SDS011;52653;50.080;21.992;2023-02-15T04:59:28;44.00;;;21.90;;
65871;SDS011;52653;50.080;21.992;2023-02-15T05:02:21;41.80;;;23.90;;
65871;SDS011;52653;50.080;21.992;2023-02-15T05:05:16;45.50;;;24.40;;
65871;SDS011;52653;50.080;21.992;2023-02-15T05:08:09;37.40;;;21.80;;
65871;SDS011;52653;50.080;21.992;2023-02-15T05:11:02;39.50;;;24.20;;
65871;SDS011;52653;50.080;21.992;2023-02-15T05:13:48;38.80;;;23.20;;
65871;SDS011;52653;50.080;21.992;2023-02-15T05:16:41;39.70;;;25.00;;
65871;SDS011;52653;50.080;21.992;2023-02-15T05:19:34;38.80;;;24.70;;
65871;SDS011;52653;50.080;21.992;2023-02-15T05:22:27;39.90;;;24.20;;
65871;SDS011;52653;50.080;21.992;2023-02-15T05:25:20;39.50;;;22.80;;
65871;SDS011;52653;50.080;21.992;2023-02-15T05:28:30;38.80;;;22.90;;
65871;SDS011;52653;50.080;21.992;2023-02-15T05:31:22;37.60;;;23.20;;
65871;SDS011;52653;50.080;21.992;2023-02-15T05:34:15;37.20;;;23.00;;
65871;SDS011;52653;50.080;21.992;2023-02-15T05:37:09;34.60;;;21.90;;
65871;SDS011;52653;50.080;21.992;2023-02-15T05:40:02;39.70;;;23.50;;
65871;SDS011;52653;50.080;21.992;2023-02-15T05:42:57;36.10;;;23.00;;
65871;SDS011;52653;50.080;21.992;2023-02-15T05:45:46;37.00;;;23.60;;
65871;SDS011;52653;50.080;21.992;2023-02-15T05:48:40;39.40;;;24.40;;
65871;SDS011;52653;50.080;21.992;2023-02-15T05:51:33;42.70;;;24.30;;
65871;SDS011;52653;50.080;21.992;2023-02-15T05:54:21;38.30;;;22.80;;
65871;SDS011;52653;50.080;21.992;2023-02-15T05:57:14;41.20;;;23.50;;
65871;SDS011;52653;50.080;21.992;2023-02-15T06:00:12;38.50;;;23.00;;
65871;SDS011;52653;50.080;21.992;2023-02-15T06:03:06;35.90;;;22.20;;
65871;SDS011;52653;50.080;21.992;2023-02-15T06:06:00;37.40;;;23.30;;
65871;SDS011;52653;50.080;21.992;2023-02-15T06:08:54;38.30;;;22.60;;
65871;SDS011;52653;50.080;21.992;2023-02-15T06:11:41;39.70;;;24.40;;
65871;SDS011;52653;50.080;21.992;2023-02-15T06:14:34;40.90;;;25.20;;
65871;SDS011;52653;50.080;21.992;2023-02-15T06:17:27;43.10;;;24.50;;
65871;SDS011;52653;50.080;21.992;2023-02-15T06:20:20;46.20;;;27.90;;
65871;SDS011;52653;50.080;21.992;2023-02-15T06:23:13;39.70;;;23.80;;
65871;SDS011;52653;50.080;21.992;2023-02-15T06:26:06;39.40;;;24.70;;
65871;SDS011;52653;50.080;21.992;2023-02-15T06:28:58;36.20;;;22.70;;
65871;SDS011;52653;50.080;21.992;2023-02-15T06:31:51;34.20;;;21.10;;
65871;SDS011;52653;50.080;21.992;2023-02-15T06:34:45;33.10;;;19.50;;
65871;SDS011;52653;50.080;21.992;2023-02-15T06:37:38;27.20;;;18.10;;
65871;SDS011;52653;50.080;21.992;2023-02-15T06:40:30;34.10;;;20.20;;
65871;SDS011;52653;50.080;21.992;2023-02-15T06:43:23;38.40;;;23.20;;
65871;SDS011;52653;50.080;21.992;2023-02-15T06:46:15;39.40;;;21.80;;
65871;SDS011;52653;50.080;21.992;2023-02-15T06:49:09;34.80;;;21.10;;
65871;SDS011;52653;50.080;21.992;2023-02-15T06:52:02;35.50;;;22.00;;
65871;SDS011;52653;50.080;21.992;2023-02-15T06:54:56;33.40;;;20.60;;
65871;SDS011;52653;50.080;21.992;2023-02-15T06:57:48;36.10;;;21.00;;
65871;SDS011;52653;50.080;21.992;2023-02-15T07:00:41;34.00;;;20.90;;
65871;SDS011;52653;50.080;21.992;2023-02-15T07:03:28;34.00;;;21.10;;
65871;SDS011;52653;50.080;21.992;2023-02-15T07:06:21;34.50;;;20.50;;
65871;SDS011;52653;50.080;21.992;2023-02-15T07:09:14;35.30;;;21.00;;
65871;SDS011;52653;50.080;21.992;2023-02-15T07:12:07;35.40;;;21.10;;
65871;SDS011;52653;50.080;21.992;2023-02-15T07:15:20;35.30;;;22.00;;
65871;SDS011;52653;50.080;21.992;2023-02-15T07:17:59;29.10;;;18.50;;
65871;SDS011;52653;50.080;21.992;2023-02-15T07:20:54;30.70;;;18.20;;
65871;SDS011;52653;50.080;21.992;2023-02-15T07:23:37;34.60;;;20.80;;
65871;SDS011;52653;50.080;21.992;2023-02-15T07:26:30;31.30;;;20.10;;
65871;SDS011;52653;50.080;21.992;2023-02-15T07:29:19;30.60;;;19.70;;
65871;SDS011;52653;50.080;21.992;2023-02-15T07:32:12;30.90;;;18.30;;
65871;SDS011;52653;50.080;21.992;2023-02-15T07:35:05;26.00;;;18.00;;
65871;SDS011;52653;50.080;21.992;2023-02-15T07:37:38;29.90;;;19.60;;
65871;SDS011;52653;50.080;21.992;2023-02-15T07:40:30;36.50;;;22.10;;
65871;SDS011;52653;50.080;21.992;2023-02-15T07:43:24;35.90;;;22.20;;
65871;SDS011;52653;50.080;21.992;2023-02-15T07:46:17;32.80;;;19.70;;
65871;SDS011;52653;50.080;21.992;2023-02-15T07:49:01;31.00;;;18.50;;
65871;SDS011;52653;50.080;21.992;2023-02-15T07:51:47;27.40;;;17.60;;
65871;SDS011;52653;50.080;21.992;2023-02-15T07:54:40;33.00;;;19.60;;
65871;SDS011;52653;50.080;21.992;2023-02-15T07:57:15;28.00;;;17.20;;
65871;SDS011;52653;50.080;21.992;2023-02-15T08:00:09;32.50;;;19.10;;
65871;SDS011;52653;50.080;21.992;2023-02-15T08:03:03;29.40;;;18.80;;
65871;SDS011;52653;50.080;21.992;2023-02-15T08:06:05;31.50;;;20.00;;
65871;SDS011;52653;50.080;21.992;2023-02-15T08:11:46;33.30;;;20.70;;
65871;SDS011;52653;50.080;21.992;2023-02-15T08:14:32;39.60;;;23.10;;
65871;SDS011;52653;50.080;21.992;2023-02-15T08:17:25;35.70;;;22.00;;
65871;SDS011;52653;50.080;21.992;2023-02-15T08:20:09;37.60;;;22.50;;
65871;SDS011;52653;50.080;21.992;2023-02-15T08:22:52;37.20;;;23.70;;
65871;SDS011;52653;50.080;21.992;2023-02-15T08:25:47;35.50;;;23.40;;
65871;SDS011;52653;50.080;21.992;2023-02-15T08:28:41;38.60;;;22.50;;
65871;SDS011;52653;50.080;21.992;2023-02-15T08:34:15;35.90;;;21.60;;
65871;SDS011;52653;50.080;21.992;2023-02-15T08:37:00;33.60;;;21.50;;
65871;SDS011;52653;50.080;21.992;2023-02-15T08:39:47;36.60;;;21.90;;
65871;SDS011;52653;50.080;21.992;2023-02-15T08:42:42;36.80;;;22.90;;
65871;SDS011;52653;50.080;21.992;2023-02-15T08:45:25;37.70;;;22.40;;
65871;SDS011;52653;50.080;21.992;2023-02-15T08:48:18;33.50;;;21.50;;
65871;SDS011;52653;50.080;21.992;2023-02-15T08:51:06;35.90;;;21.70;;
65871;SDS011;52653;50.080;21.992;2023-02-15T08:54:02;32.80;;;20.20;;
65871;SDS011;52653;50.080;21.992;2023-02-15T08:56:49;35.20;;;21.10;;
65871;SDS011;52653;50.080;21.992;2023-02-15T08:59:35;31.30;;;20.30;;
65871;SDS011;52653;50.080;21.992;2023-02-15T09:02:21;33.00;;;21.30;;
65871;SDS011;52653;50.080;21.992;2023-02-15T09:05:14;31.80;;;20.50;;
65871;SDS011;52653;50.080;21.992;2023-02-15T09:07:57;29.30;;;19.40;;
65871;SDS011;52653;50.080;21.992;2023-02-15T09:10:50;33.80;;;20.60;;
65871;SDS011;52653;50.080;21.992;2023-02-15T09:13:43;30.10;;;18.40;;
65871;SDS011;52653;50.080;21.992;2023-02-15T09:16:37;28.70;;;18.50;;
65871;SDS011;52653;50.080;21.992;2023-02-15T09:19:21;29.70;;;19.70;;
65871;SDS011;52653;50.080;21.992;2023-02-15T09:22:04;26.50;;;18.20;;
65871;SDS011;52653;50.080;21.992;2023-02-15T09:24:57;29.70;;;18.70;;
65871;SDS011;52653;50.080;21.992;2023-02-15T09:27:30;29.70;;;18.60;;
65871;SDS011;52653;50.080;21.992;2023-02-15T09:30:23;28.70;;;19.30;;
65871;SDS011;52653;50.080;21.992;2023-02-15T09:33:16;28.50;;;18.80;;
65871;SDS011;52653;50.080;21.992;2023-02-15T09:36:15;30.10;;;18.40;;
65871;SDS011;52653;50.080;21.992;2023-02-15T09:39:03;27.20;;;17.40;;
65871;SDS011;52653;50.080;21.992;2023-02-15T09:41:57;28.40;;;19.20;;
65871;SDS011;52653;50.080;21.992;2023-02-15T09:48:05;30.40;;;18.90;;
65871;SDS011;52653;50.080;21.992;2023-02-15T09:51:21;32.80;;;18.30;;
65871;SDS011;52653;50.080;21.992;2023-02-15T09:54:42;32.30;;;19.50;;
65871;SDS011;52653;50.080;21.992;2023-02-15T09:57:42;29.10;;;18.60;;
65871;SDS011;52653;50.080;21.992;2023-02-15T10:00:45;28.90;;;19.10;;
65871;SDS011;52653;50.080;21.992;2023-02-15T10:03:47;33.80;;;18.90;;
65871;SDS011;52653;50.080;21.992;2023-02-15T10:06:52;32.30;;;18.90;;
65871;SDS011;52653;50.080;21.992;2023-02-15T10:10:02;28.50;;;18.70;;
65871;SDS011;52653;50.080;21.992;2023-02-15T10:13:08;30.80;;;19.60;;
65871;SDS011;52653;50.080;21.992;2023-02-15T10:16:19;31.70;;;19.30;;
65871;SDS011;52653;50.080;21.992;2023-02-15T10:19:20;27.60;;;17.50;;
65871;SDS011;52653;50.080;21.992;2023-02-15T10:22:22;29.10;;;17.90;;
65871;SDS011;52653;50.080;21.992;2023-02-15T10:25:22;30.10;;;17.80;;
65871;SDS011;52653;50.080;21.992;2023-02-15T10:28:17;27.70;;;17.10;;
65871;SDS011;52653;50.080;21.992;2023-02-15T10:31:15;32.20;;;18.60;;
65871;SDS011;52653;50.080;21.992;2023-02-15T10:34:14;28.60;;;17.70;;
65871;SDS011;52653;50.080;21.992;2023-02-15T10:37:13;29.40;;;19.10;;
65871;SDS011;52653;50.080;21.992;2023-02-15T10:40:01;27.00;;;17.10;;
65871;SDS011;52653;50.080;21.992;2023-02-15T10:42:59;30.20;;;17.10;;
65871;SDS011;52653;50.080;21.992;2023-02-15T10:46:14;29.50;;;17.70;;
65871;SDS011;52653;50.080;21.992;2023-02-15T10:49:26;31.30;;;19.00;;
65871;SDS011;52653;50.080;21.992;2023-02-15T10:52:35;32.20;;;18.60;;
65871;SDS011;52653;50.080;21.992;2023-02-15T10:55:37;29.20;;;18.40;;
65871;SDS011;52653;50.080;21.992;2023-02-15T10:58:41;26.60;;;17.40;;
65871;SDS011;52653;50.080;21.992;2023-02-15T11:01:47;29.00;;;18.70;;
65871;SDS011;52653;50.080;21.992;2023-02-15T11:04:50;28.60;;;17.80;;
65871;SDS011;52653;50.080;21.992;2023-02-15T11:07:51;28.50;;;18.20;;
65871;SDS011;52653;50.080;21.992;2023-02-15T11:10:48;31.50;;;19.00;;
65871;SDS011;52653;50.080;21.992;2023-02-15T11:13:44;30.90;;;20.20;;
65871;SDS011;52653;50.080;21.992;2023-02-15T11:16:44;32.20;;;18.60;;
65871;SDS011;52653;50.080;21.992;2023-02-15T11:22:25;29.60;;;18.20;;
65871;SDS011;52653;50.080;21.992;2023-02-15T11:25:16;29.40;;;18.10;;
65871;SDS011;52653;50.080;21.992;2023-02-15T11:28:13;26.70;;;17.80;;
65871;SDS011;52653;50.080;21.992;2023-02-15T11:31:13;30.10;;;17.60;;
65871;SDS011;52653;50.080;21.992;2023-02-15T11:34:12;29.60;;;17.10;;
65871;SDS011;52653;50.080;21.992;2023-02-15T11:37:05;27.70;;;18.40;;
65871;SDS011;52653;50.080;21.992;2023-02-15T11:40:03;31.90;;;18.70;;
65871;SDS011;52653;50.080;21.992;2023-02-15T11:43:13;29.00;;;18.10;;
65871;SDS011;52653;50.080;21.992;2023-02-15T11:46:08;31.70;;;19.20;;
65871;SDS011;52653;50.080;21.992;2023-02-15T11:49:07;31.20;;;19.20;;
65871;SDS011;52653;50.080;21.992;2023-02-15T11:52:02;29.80;;;19.30;;
65871;SDS011;52653;50.080;21.992;2023-02-15T11:54:58;31.60;;;19.60;;
65871;SDS011;52653;50.080;21.992;2023-02-15T11:57:51;30.10;;;18.70;;
65871;SDS011;52653;50.080;21.992;2023-02-15T12:00:47;32.40;;;19.20;;
65871;SDS011;52653;50.080;21.992;2023-02-15T12:03:45;30.80;;;18.80;;
65871;SDS011;52653;50.080;21.992;2023-02-15T12:06:43;31.60;;;18.60;;
65871;SDS011;52653;50.080;21.992;2023-02-15T12:09:40;31.90;;;19.60;;
65871;SDS011;52653;50.080;21.992;2023-02-15T12:12:32;33.50;;;20.20;;
65871;SDS011;52653;50.080;21.992;2023-02-15T12:15:20;31.30;;;19.40;;
65871;SDS011;52653;50.080;21.992;2023-02-15T12:18:20;30.70;;;18.00;;
65871;SDS011;52653;50.080;21.992;2023-02-15T12:21:28;28.80;;;17.50;;
65871;SDS011;52653;50.080;21.992;2023-02-15T12:24:25;29.10;;;18.20;;
65871;SDS011;52653;50.080;21.992;2023-02-15T12:27:22;33.10;;;18.30;;
65871;SDS011;52653;50.080;21.992;2023-02-15T12:30:18;29.90;;;18.20;;
65871;SDS011;52653;50.080;21.992;2023-02-15T12:33:02;28.50;;;18.00;;
65871;SDS011;52653;50.080;21.992;2023-02-15T12:36:08;29.90;;;18.70;;
65871;SDS011;52653;50.080;21.992;2023-02-15T12:39:05;29.30;;;18.50;;
65871;SDS011;52653;50.080;21.992;2023-02-15T12:42:15;31.50;;;18.90;;
65871;SDS011;52653;50.080;21.992;2023-02-15T12:45:02;32.20;;;19.10;;
65871;SDS011;52653;50.080;21.992;2023-02-15T12:48:13;27.20;;;17.00;;
65871;SDS011;52653;50.080;21.992;2023-02-15T12:51:08;29.60;;;17.70;;
65871;SDS011;52653;50.080;21.992;2023-02-15T12:53:59;27.80;;;17.10;;
65871;SDS011;52653;50.080;21.992;2023-02-15T12:57:20;28.30;;;18.00;;
65871;SDS011;52653;50.080;21.992;2023-02-15T13:00:26;27.00;;;17.10;;
65871;SDS011;52653;50.080;21.992;2023-02-15T13:03:21;27.70;;;17.10;;
65871;SDS011;52653;50.080;21.992;2023-02-15T13:06:15;29.20;;;17.80;;
65871;SDS011;52653;50.080;21.992;2023-02-15T13:09:13;29.50;;;17.20;;
65871;SDS011;52653;50.080;21.992;2023-02-15T13:12:15;29.90;;;17.50;;
65871;SDS011;52653;50.080;21.992;2023-02-15T13:15:23;27.90;;;17.60;;
65871;SDS011;52653;50.080;21.992;2023-02-15T13:18:12;30.00;;;18.90;;
65871;SDS011;52653;50.080;21.992;2023-02-15T13:21:06;28.70;;;17.30;;
65871;SDS011;52653;50.080;21.992;2023-02-15T13:24:18;26.70;;;16.30;;
65871;SDS011;52653;50.080;21.992;2023-02-15T13:27:16;25.20;;;16.20;;
65871;SDS011;52653;50.080;21.992;2023-02-15T13:33:24;27.10;;;16.10;;
65871;SDS011;52653;50.080;21.992;2023-02-15T13:36:15;27.80;;;16.80;;
65871;SDS011;52653;50.080;21.992;2023-02-15T13:39:20;24.80;;;16.00;;
65871;SDS011;52653;50.080;21.992;2023-02-15T13:42:16;26.90;;;16.60;;
65871;SDS011;52653;50.080;21.992;2023-02-15T13:45:16;29.50;;;17.30;;
65871;SDS011;52653;50.080;21.992;2023-02-15T13:48:30;27.90;;;16.40;;
65871;SDS011;52653;50.080;21.992;2023-02-15T13:51:41;25.30;;;16.10;;
65871;SDS011;52653;50.080;21.992;2023-02-15T13:54:44;29.20;;;16.60;;
65871;SDS011;52653;50.080;21.992;2023-02-15T13:58:00;24.50;;;16.70;;
65871;SDS011;52653;50.080;21.992;2023-02-15T14:01:02;30.30;;;16.40;;
65871;SDS011;52653;50.080;21.992;2023-02-15T14:04:20;25.50;;;15.70;;
65871;SDS011;52653;50.080;21.992;2023-02-15T14:07:33;24.30;;;15.10;;
65871;SDS011;52653;50.080;21.992;2023-02-15T14:10:49;26.30;;;14.90;;
65871;SDS011;52653;50.080;21.992;2023-02-15T14:13:53;27.40;;;16.80;;
65871;SDS011;52653;50.080;21.992;2023-02-15T14:16:57;24.10;;;15.20;;
65871;SDS011;52653;50.080;21.992;2023-02-15T14:19:57;24.10;;;15.80;;
65871;SDS011;52653;50.080;21.992;2023-02-15T14:22:57;27.50;;;15.90;;
65871;SDS011;52653;50.080;21.992;2023-02-15T14:25:50;23.80;;;15.20;;
65871;SDS011;52653;50.080;21.992;2023-02-15T14:28:39;26.60;;;16.10;;
65871;SDS011;52653;50.080;21.992;2023-02-15T14:31:34;24.00;;;14.90;;
65871;SDS011;52653;50.080;21.992;2023-02-15T14:34:43;24.50;;;15.40;;
65871;SDS011;52653;50.080;21.992;2023-02-15T14:37:41;25.00;;;16.00;;
65871;SDS011;52653;50.080;21.992;2023-02-15T14:40:42;25.90;;;16.00;;
65871;SDS011;52653;50.080;21.992;2023-02-15T14:43:56;26.00;;;16.70;;
65871;SDS011;52653;50.080;21.992;2023-02-15T14:47:00;28.10;;;16.70;;
65871;SDS011;52653;50.080;21.992;2023-02-15T14:50:00;28.30;;;16.40;;
65871;SDS011;52653;50.080;21.992;2023-02-15T14:53:37;31.40;;;19.20;;
65871;SDS011;52653;50.080;21.992;2023-02-15T14:59:18;25.20;;;15.60;;
65871;SDS011;52653;50.080;21.992;2023-02-15T15:02:12;26.20;;;16.30;;
65871;SDS011;52653;50.080;21.992;2023-02-15T15:05:06;33.20;;;19.90;;
65871;SDS011;52653;50.080;21.992;2023-02-15T15:08:00;31.30;;;19.40;;
65871;SDS011;52653;50.080;21.992;2023-02-15T15:10:56;32.90;;;20.40;;
65871;SDS011;52653;50.080;21.992;2023-02-15T15:14:41;31.20;;;19.00;;
65871;SDS011;52653;50.080;21.992;2023-02-15T15:17:53;27.20;;;16.90;;
65871;SDS011;52653;50.080;21.992;2023-02-15T15:20:48;27.30;;;16.30;;
65871;SDS011;52653;50.080;21.992;2023-02-15T15:23:42;28.30;;;16.90;;
65871;SDS011;52653;50.080;21.992;2023-02-15T15:26:30;27.80;;;16.30;;
65871;SDS011;52653;50.080;21.992;2023-02-15T15:29:06;27.10;;;17.80;;
65871;SDS011;52653;50.080;21.992;2023-02-15T15:31:52;28.80;;;17.10;;
65871;SDS011;52653;50.080;21.992;2023-02-15T15:34:54;29.90;;;18.00;;
65871;SDS011;52653;50.080;21.992;2023-02-15T15:38:13;29.70;;;18.00;;
65871;SDS011;52653;50.080;21.992;2023-02-15T15:41:22;28.40;;;17.60;;
65871;SDS011;52653;50.080;21.992;2023-02-15T15:44:37;27.80;;;17.10;;
65871;SDS011;52653;50.080;21.992;2023-02-15T15:48:00;31.40;;;17.50;;
65871;SDS011;52653;50.080;21.992;2023-02-15T15:51:01;30.40;;;18.30;;
65871;SDS011;52653;50.080;21.992;2023-02-15T15:53:57;30.70;;;18.30;;
65871;SDS011;52653;50.080;21.992;2023-02-15T15:56:45;33.00;;;17.90;;
65871;SDS011;52653;50.080;21.992;2023-02-15T15:59:38;29.20;;;17.80;;
65871;SDS011;52653;50.080;21.992;2023-02-15T16:02:26;33.00;;;19.30;;
65871;SDS011;52653;50.080;21.992;2023-02-15T16:05:09;29.80;;;19.10;;
65871;SDS011;52653;50.080;21.992;2023-02-15T16:08:03;31.20;;;18.10;;
65871;SDS011;52653;50.080;21.992;2023-02-15T16:10:47;32.00;;;18.90;;
65871;SDS011;52653;50.080;21.992;2023-02-15T16:13:35;31.50;;;18.70;;
65871;SDS011;52653;50.080;21.992;2023-02-15T16:16:30;30.80;;;18.50;;
65871;SDS011;52653;50.080;21.992;2023-02-15T16:19:24;33.50;;;18.50;;
65871;SDS011;52653;50.080;21.992;2023-02-15T16:22:20;29.90;;;16.90;;
65871;SDS011;52653;50.080;21.992;2023-02-15T16:25:23;28.70;;;17.20;;
65871;SDS011;52653;50.080;21.992;2023-02-15T16:28:18;33.20;;;17.50;;
65871;SDS011;52653;50.080;21.992;2023-02-15T16:31:13;28.30;;;18.10;;
65871;SDS011;52653;50.080;21.992;2023-02-15T16:34:07;28.90;;;16.20;;
65871;SDS011;52653;50.080;21.992;2023-02-15T16:37:13;30.20;;;18.10;;
65871;SDS011;52653;50.080;21.992;2023-02-15T16:40:24;38.20;;;21.50;;
65871;SDS011;52653;50.080;21.992;2023-02-15T16:43:25;40.40;;;24.10;;
65871;SDS011;52653;50.080;21.992;2023-02-15T16:46:22;52.00;;;29.00;;
65871;SDS011;52653;50.080;21.992;2023-02-15T16:49:03;51.00;;;31.00;;
65871;SDS011;52653;50.080;21.992;2023-02-15T16:52:05;57.30;;;33.90;;
65871;SDS011;52653;50.080;21.992;2023-02-15T16:55:17;62.30;;;36.00;;
65871;SDS011;52653;50.080;21.992;2023-02-15T16:58:07;54.00;;;30.80;;
65871;SDS011;52653;50.080;21.992;2023-02-15T17:01:07;62.60;;;35.10;;
65871;SDS011;52653;50.080;21.992;2023-02-15T17:04:10;63.80;;;35.80;;
65871;SDS011;52653;50.080;21.992;2023-02-15T17:07:15;60.40;;;35.80;;
65871;SDS011;52653;50.080;21.992;2023-02-15T17:13:21;74.50;;;42.50;;
65871;SDS011;52653;50.080;21.992;2023-02-15T17:16:25;76.10;;;44.60;;
65871;SDS011;52653;50.080;21.992;2023-02-15T17:19:22;80.50;;;46.60;;